createdAt,value
2019-05-09T00:03:10.899Z,68.17
2019-05-09T00:07:18.581Z,68.00
2019-05-09T00:11:26.837Z,67.94
2019-05-09T00:15:35.162Z,68.12
2019-05-09T00:19:43.902Z,67.92
2019-05-09T00:23:54.109Z,67.86
2019-05-09T00:28:04.089Z,68.20
2019-05-09T00:32:34.299Z,68.31
2019-05-09T00:36:43.796Z,68.16
2019-05-09T00:40:58.460Z,68.05
2019-05-09T00:45:04.149Z,67.84
2019-05-09T00:49:17.387Z,67.91
2019-05-09T00:53:25.898Z,67.96
2019-05-09T00:57:34.344Z,68.16
2019-05-09T01:01:43.693Z,67.96
2019-05-09T01:05:51.576Z,68.05
2019-05-09T01:09:59.685Z,68.12
2019-05-09T01:14:08.030Z,68.10
2019-05-09T01:18:16.244Z,68.08
2019-05-09T01:22:23.950Z,67.96
2019-05-09T01:26:33.380Z,67.86
2019-05-09T01:30:43.841Z,67.77
2019-05-09T01:34:53.059Z,67.64
2019-05-09T01:39:03.243Z,66.93
2019-05-09T01:43:10.883Z,65.52
2019-05-09T01:47:19.202Z,65.38
2019-05-09T01:51:27.404Z,65.14
2019-05-09T01:55:53.971Z,66.20
2019-05-09T02:00:04.144Z,65.68
2019-05-09T02:04:13.729Z,66.10
2019-05-09T02:08:23.665Z,66.05
2019-05-09T02:12:33.897Z,66.28
2019-05-09T02:16:59.838Z,66.13
2019-05-09T02:21:11.316Z,66.91
2019-05-09T02:25:18.154Z,68.52
2019-05-09T02:29:26.054Z,68.27
2019-05-09T02:33:36.027Z,66.71
2019-05-09T02:37:44.142Z,67.05
2019-05-09T02:42:04.428Z,66.55
2019-05-09T02:46:10.924Z,66.74
2019-05-09T02:50:19.712Z,67.20
2019-05-09T02:54:29.769Z,67.54
2019-05-09T02:58:48.479Z,67.88
2019-05-09T03:03:11.071Z,68.94
2019-05-09T03:07:21.419Z,68.40
2019-05-09T03:11:29.515Z,69.04
2019-05-09T03:15:39.381Z,68.72
2019-05-09T03:19:48.775Z,67.94
2019-05-09T03:23:59.119Z,67.74
2019-05-09T03:28:12.860Z,68.02
2019-05-09T03:32:21.163Z,68.71
2019-05-09T03:36:29.668Z,68.21
2019-05-09T03:40:38.003Z,67.65
2019-05-09T03:44:47.729Z,67.27
2019-05-09T03:48:58.249Z,66.59
2019-05-09T03:53:08.391Z,68.07
2019-05-09T03:57:24.747Z,67.06
2019-05-09T04:01:32.723Z,66.30
2019-05-09T04:05:54.463Z,66.54
2019-05-09T04:09:49.892Z,64.73
2019-05-09T04:14:02.121Z,64.67
2019-05-09T04:18:09.689Z,64.64
2019-05-09T04:22:18.270Z,65.46
2019-05-09T04:26:45.562Z,66.36
2019-05-09T04:30:54.364Z,65.84
2019-05-09T04:35:02.584Z,65.70
2019-05-09T04:39:21.510Z,65.88
2019-05-09T04:43:34.298Z,66.47
2019-05-09T04:47:39.390Z,63.99
2019-05-09T04:51:44.452Z,64.37
2019-05-09T04:55:52.142Z,64.21
2019-05-09T05:00:00.366Z,63.74
2019-05-09T05:04:08.170Z,63.82
2019-05-09T05:08:18.014Z,63.74
2019-05-09T05:12:27.598Z,63.53
2019-05-09T05:16:34.987Z,63.54
2019-05-09T05:20:43.080Z,61.79
2019-05-09T05:24:55.919Z,60.94
2019-05-09T05:29:03.633Z,60.90
2019-05-09T05:33:29.743Z,61.56
2019-05-09T05:37:38.623Z,61.25
2019-05-09T05:41:48.429Z,62.06
2019-05-09T05:46:03.674Z,63.35
2019-05-09T05:50:11.595Z,63.00
2019-05-09T05:54:23.376Z,62.27
2019-05-09T05:58:31.333Z,61.82
2019-05-09T06:02:38.895Z,65.60
2019-05-09T06:06:48.108Z,66.06
2019-05-09T06:10:57.592Z,59.69
2019-05-09T06:15:07.555Z,59.91
2019-05-09T06:19:17.857Z,59.48
2019-05-09T06:23:28.166Z,58.60
2019-05-09T06:27:37.651Z,57.71
2019-05-09T06:31:48.168Z,59.77
2019-05-09T06:35:58.947Z,55.34
2019-05-09T06:40:08.127Z,53.15
2019-05-09T06:44:31.733Z,52.52
2019-05-09T06:48:39.993Z,53.38
2019-05-09T06:52:49.574Z,49.80
2019-05-09T06:56:58.458Z,49.25
2019-05-09T07:01:18.290Z,47.86
2019-05-09T07:05:48.145Z,47.29
2019-05-09T07:09:58.576Z,43.68
2019-05-09T07:14:08.386Z,44.55
2019-05-09T07:18:18.402Z,44.49
2019-05-09T07:22:44.620Z,43.98
2019-05-09T07:26:52.339Z,44.38
2019-05-09T07:31:19.256Z,40.96
2019-05-09T07:35:27.961Z,35.93
2019-05-09T07:39:37.829Z,34.93
2019-05-09T07:43:47.786Z,32.98
2019-05-09T07:47:58.137Z,32.20
2019-05-09T07:52:09.398Z,31.83
2019-05-09T07:56:15.415Z,30.83
2019-05-09T08:00:32.775Z,30.72
2019-05-09T08:04:40.763Z,31.04
2019-05-09T08:08:49.502Z,31.35
2019-05-09T08:12:58.645Z,29.66
2019-05-09T08:17:08.588Z,30.49
2019-05-09T08:21:18.033Z,29.33
2019-05-09T08:25:27.691Z,31.77
2019-05-09T08:29:35.512Z,30.76
2019-05-09T08:33:43.670Z,30.62
2019-05-09T08:37:51.641Z,30.41
2019-05-09T08:42:00.039Z,30.86
2019-05-09T08:46:08.302Z,30.19
2019-05-09T08:50:27.944Z,30.50
2019-05-09T08:54:48.415Z,29.27
2019-05-09T08:59:01.610Z,29.38
2019-05-09T09:03:07.762Z,29.96
2019-05-09T09:07:14.993Z,30.35
2019-05-09T09:11:23.201Z,31.72
2019-05-09T09:15:55.653Z,30.74
2019-05-09T09:19:40.718Z,29.23
2019-05-09T09:23:50.776Z,28.23
2019-05-09T09:27:58.604Z,30.60
2019-05-09T09:32:08.250Z,34.98
2019-05-09T09:36:17.868Z,37.46
2019-05-09T09:40:27.795Z,38.36
2019-05-09T09:44:35.099Z,39.70
2019-05-09T09:48:44.537Z,36.81
2019-05-09T09:52:52.412Z,34.68
2019-05-09T09:57:00.887Z,31.85
2019-05-09T10:01:24.512Z,32.66
2019-05-09T10:05:32.139Z,35.90
2019-05-09T10:09:40.397Z,38.45
2019-05-09T10:13:51.754Z,37.71
2019-05-09T10:18:07.473Z,37.54
2019-05-09T10:22:24.219Z,38.14
2019-05-09T10:26:28.546Z,35.83
2019-05-09T10:30:38.282Z,34.12
2019-05-09T10:34:48.848Z,35.02
2019-05-09T10:38:58.183Z,33.17
2019-05-09T10:43:34.558Z,33.27
2019-05-09T10:47:33.261Z,31.70
2019-05-09T10:51:41.509Z,32.71
2019-05-09T10:55:49.424Z,33.39
2019-05-09T10:59:57.987Z,35.79
2019-05-09T11:04:08.131Z,36.93
2019-05-09T11:08:18.466Z,39.00
2019-05-09T11:12:27.603Z,39.18
2019-05-09T11:16:45.484Z,35.47
2019-05-09T11:20:45.911Z,34.42
2019-05-09T11:24:53.874Z,34.97
2019-05-09T11:29:02.659Z,35.82
2019-05-09T11:33:10.389Z,35.40
2019-05-09T11:37:18.080Z,35.98
2019-05-09T11:41:29.051Z,37.25
2019-05-09T11:45:35.120Z,37.63
2019-05-09T11:49:43.078Z,37.50
2019-05-09T11:53:51.226Z,37.28
2019-05-09T11:57:59.274Z,39.18
2019-05-09T12:02:08.851Z,40.03
2019-05-09T12:06:20.214Z,40.12
2019-05-09T12:10:28.705Z,40.46
2019-05-09T12:14:38.205Z,38.24
2019-05-09T12:18:48.510Z,39.58
2019-05-09T12:22:58.203Z,38.65
2019-05-09T12:27:08.539Z,40.06
2019-05-09T12:31:18.071Z,41.43
2019-05-09T12:35:26.479Z,43.85
2019-05-09T12:39:34.181Z,43.51
2019-05-09T12:43:41.824Z,43.36
2019-05-09T12:48:05.190Z,43.05
2019-05-09T12:51:59.636Z,44.56
2019-05-09T12:56:08.149Z,45.06
2019-05-09T13:00:18.686Z,46.25
2019-05-09T13:04:28.302Z,47.24
2019-05-09T13:08:38.308Z,48.06
2019-05-09T13:12:48.486Z,48.90
2019-05-09T13:17:04.774Z,50.00
2019-05-09T13:21:12.777Z,49.59
2019-05-09T13:25:20.644Z,51.48
2019-05-09T13:29:29.639Z,51.48
2019-05-09T13:33:40.948Z,53.50
2019-05-09T13:37:49.297Z,54.14
2019-05-09T13:41:58.312Z,55.60
2019-05-09T13:46:09.011Z,54.55
2019-05-09T13:50:18.617Z,55.35
2019-05-09T13:54:28.563Z,57.21
2019-05-09T13:58:38.460Z,57.81
2019-05-09T14:02:48.817Z,59.84
2019-05-09T14:07:54.781Z,59.45
2019-05-09T14:12:00.194Z,61.19
2019-05-09T14:16:19.909Z,61.57
2019-05-09T14:20:18.005Z,59.90
2019-05-09T14:24:27.879Z,61.07
2019-05-09T14:28:36.148Z,59.77
2019-05-09T14:32:43.758Z,60.98
2019-05-09T14:36:52.477Z,59.21
2019-05-09T14:41:00.173Z,61.73
2019-05-09T14:45:08.589Z,60.84
2019-05-09T14:49:17.857Z,62.08
2019-05-09T14:53:28.148Z,62.24
2019-05-09T14:57:38.187Z,61.79
2019-05-09T15:01:45.931Z,61.74
2019-05-09T15:05:53.727Z,62.15
2019-05-09T15:10:01.843Z,62.61
2019-05-09T15:14:10.241Z,62.56
2019-05-09T15:18:17.777Z,62.43
2019-05-09T15:22:28.379Z,60.26
2019-05-09T15:26:37.292Z,61.68
2019-05-09T15:30:44.874Z,61.35
2019-05-09T15:34:52.682Z,61.43
2019-05-09T15:39:00.378Z,62.60
2019-05-09T15:43:08.505Z,62.38
2019-05-09T15:47:20.950Z,60.25
2019-05-09T15:51:32.033Z,60.00
2019-05-09T15:55:38.408Z,61.55
2019-05-09T15:59:47.953Z,62.55
2019-05-09T16:03:55.551Z,61.79
2019-05-09T16:08:04.363Z,61.26
2019-05-09T16:12:12.123Z,61.87
2019-05-09T16:16:19.709Z,61.70
2019-05-09T16:20:37.189Z,61.95
2019-05-09T16:24:38.099Z,62.10
2019-05-09T16:28:48.583Z,61.52
2019-05-09T16:32:55.846Z,61.19
2019-05-09T16:37:03.432Z,62.12
2019-05-09T16:41:11.651Z,62.22
2019-05-09T16:45:20.920Z,62.16
2019-05-09T16:49:29.319Z,63.16
2019-05-09T16:53:37.655Z,63.45
2019-05-09T16:57:45.599Z,63.59
2019-05-09T17:01:53.792Z,64.26
2019-05-09T17:06:02.109Z,64.66
2019-05-09T17:10:10.054Z,65.11
2019-05-09T17:14:19.312Z,64.98
2019-05-09T17:18:28.387Z,65.10
2019-05-09T17:23:06.893Z,65.26
2019-05-09T17:27:03.574Z,65.12
2019-05-09T17:31:11.486Z,65.18
2019-05-09T17:35:19.727Z,65.43
2019-05-09T17:39:27.999Z,65.31
2019-05-09T17:43:38.223Z,65.62
2019-05-09T17:47:45.510Z,65.64
2019-05-09T17:51:53.643Z,65.86
2019-05-09T17:56:01.736Z,66.59
2019-05-09T18:00:11.450Z,67.04
2019-05-09T18:04:19.829Z,67.57
2019-05-09T18:08:28.381Z,68.74
2019-05-09T18:12:38.384Z,69.67
2019-05-09T18:16:47.832Z,69.85
2019-05-09T18:20:57.823Z,70.35
2019-05-09T18:25:08.333Z,70.43
2019-05-09T18:29:17.936Z,70.94
2019-05-09T18:33:31.826Z,71.59
2019-05-09T18:37:39.707Z,71.80
2019-05-09T18:41:48.402Z,71.52
2019-05-09T18:45:57.729Z,71.14
2019-05-09T18:50:07.795Z,71.17
2019-05-09T18:54:15.452Z,71.34
2019-05-09T18:58:23.896Z,71.84
2019-05-09T19:02:31.883Z,72.11
2019-05-09T19:06:40.537Z,72.16
2019-05-09T19:10:52.225Z,72.23
2019-05-09T19:14:59.094Z,72.29
2019-05-09T19:19:28.628Z,72.35
2019-05-09T19:23:36.325Z,72.39
2019-05-09T19:27:44.965Z,72.35
2019-05-09T19:31:53.134Z,72.26
2019-05-09T19:36:00.705Z,72.47
2019-05-09T19:40:09.320Z,72.49
2019-05-09T19:44:17.155Z,72.64
2019-05-09T19:48:25.361Z,72.69
2019-05-09T19:52:38.283Z,72.85
2019-05-09T19:56:43.218Z,73.26
2019-05-09T20:00:51.557Z,73.43
2019-05-09T20:04:59.648Z,73.54
2019-05-09T20:09:13.216Z,73.56
2019-05-09T20:13:34.522Z,73.38
2019-05-09T20:17:42.360Z,73.93
2019-05-09T20:21:50.670Z,74.22
2019-05-09T20:25:58.996Z,74.22
2019-05-09T20:30:07.021Z,74.36
2019-05-09T20:34:15.217Z,74.45
2019-05-09T20:38:23.635Z,74.29
2019-05-09T20:42:31.660Z,74.12
2019-05-09T20:46:40.178Z,74.09
2019-05-09T20:50:47.808Z,73.71
2019-05-09T20:54:56.017Z,73.79
2019-05-09T20:59:04.118Z,74.05
2019-05-09T21:03:11.926Z,74.20
2019-05-09T21:07:20.252Z,73.99
2019-05-09T21:11:29.887Z,73.87
2019-05-09T21:15:38.522Z,73.65
2019-05-09T21:19:46.551Z,73.20
2019-05-09T21:23:55.078Z,73.20
2019-05-09T21:28:03.002Z,73.35
2019-05-09T21:32:11.422Z,73.45
2019-05-09T21:36:19.535Z,73.32
2019-05-09T21:40:27.133Z,73.33
2019-05-09T21:44:34.965Z,73.19
2019-05-09T21:48:42.698Z,72.72
2019-05-09T21:52:50.481Z,72.77
2019-05-09T21:56:58.697Z,72.65
2019-05-09T22:01:08.755Z,72.57
2019-05-09T22:05:19.421Z,72.18
2019-05-09T22:09:27.762Z,72.32
2019-05-09T22:13:35.520Z,72.33
2019-05-09T22:17:44.164Z,72.35
2019-05-09T22:21:52.414Z,72.49
2019-05-09T22:26:03.171Z,71.63
2019-05-09T22:30:12.491Z,71.42
2019-05-09T22:34:20.860Z,71.39
2019-05-09T22:38:28.557Z,71.41
2019-05-09T22:42:37.015Z,72.08
2019-05-09T22:46:45.220Z,72.21
2019-05-09T22:50:52.820Z,71.92
2019-05-09T22:55:02.596Z,72.19
2019-05-09T22:59:10.551Z,71.84
2019-05-09T23:03:18.798Z,71.58
2019-05-09T23:07:27.178Z,72.75
2019-05-09T23:11:35.045Z,73.31
2019-05-09T23:15:43.270Z,73.99
2019-05-09T23:19:52.095Z,74.04
2019-05-09T23:24:05.423Z,74.54
2019-05-09T23:28:13.672Z,74.36
2019-05-09T23:32:30.637Z,75.28
2019-05-09T23:36:38.279Z,75.68
2019-05-09T23:40:46.405Z,75.21
2019-05-09T23:44:54.106Z,75.47
2019-05-09T23:49:01.740Z,76.83
2019-05-09T23:53:10.139Z,78.10
2019-05-09T23:57:35.341Z,78.38
